Terminal Aerodrome Forecast
Issued by NWS Duluth, MN

Home | Current Version | Previous Version | Text Only | Print | Product List | Glossary On
Versions: 1 2 3 4 5 6 7 8 9 10 11 12 13 14 15 16 17 18 19 20 21 22 23 24 25 26 27 28 29 30 31 32 33 34 35 36 37 38 39
000
FTUS43 KDLH 301700
TAFINL
TAF
KINL 301723Z 3018/3118 32016G23KT P6SM SCT015 OVC040
      TEMPO 3018/3022 2SM -SHSN BR BKN009 OVC015
     FM302200 33015G27KT P6SM BKN025 OVC035
     FM310200 34016G28KT P6SM FEW035
     FM310600 35012G20KT P6SM SKC
     FM311600 31009KT P6SM SKC=

USA.gov is the U.S. government's official web portal to all federal, state and local government web resources and services.